createdAt,value
2023-04-11T00:01:48.794Z,11.4
2023-04-11T00:06:54.894Z,11.3
2023-04-11T00:12:00.011Z,11.4
2023-04-11T00:17:06.096Z,11.4
2023-04-11T00:22:12.208Z,11.5
2023-04-11T00:27:18.295Z,11.5
2023-04-11T00:32:24.403Z,11.6
2023-04-11T00:37:30.493Z,11.7
2023-04-11T00:42:36.575Z,11.6
2023-04-11T00:47:42.680Z,11.7
2023-04-11T00:52:48.767Z,11.6
2023-04-11T00:57:54.890Z,11.6
2023-04-11T01:03:00.978Z,11.5
2023-04-11T01:08:07.063Z,11.3
2023-04-11T01:13:13.182Z,11.2
2023-04-11T01:18:18.293Z,10.9
2023-04-11T01:23:24.390Z,10.3
2023-04-11T01:28:30.491Z,10
2023-04-11T01:33:36.577Z,9.8
2023-04-11T01:38:42.674Z,9.7
2023-04-11T01:43:48.768Z,9.7
2023-04-11T01:48:54.847Z,9.7
2023-04-11T01:54:01.003Z,9.7
2023-04-11T01:59:07.051Z,9.7
2023-04-11T02:04:13.146Z,9.8
2023-04-11T02:09:19.252Z,9.7
2023-04-11T02:14:25.347Z,9.7
2023-04-11T02:19:31.428Z,9.6
2023-04-11T02:24:36.549Z,9.6
2023-04-11T02:29:42.650Z,9.4
2023-04-11T02:34:48.752Z,9.4
2023-04-11T02:39:54.841Z,9.3
2023-04-11T02:45:00.944Z,9.3
2023-04-11T02:50:07.042Z,9.4
2023-04-11T02:55:13.139Z,9.4
2023-04-11T03:00:19.223Z,9.5
2023-04-11T03:05:25.320Z,9.6
2023-04-11T03:10:31.429Z,9.6
2023-04-11T03:15:37.524Z,9.7
2023-04-11T03:20:43.617Z,9.7
2023-04-11T03:25:49.729Z,9.7
2023-04-11T03:30:54.834Z,9.7
2023-04-11T03:36:00.941Z,9.7
2023-04-11T03:41:07.030Z,9.7
2023-04-11T03:46:13.137Z,9.8
2023-04-11T03:51:19.229Z,9.8
2023-04-11T03:56:25.321Z,9.7
2023-04-11T04:01:31.425Z,9.6
2023-04-11T04:06:37.508Z,9.6
2023-04-11T04:11:43.615Z,9.6
2023-04-11T04:16:49.700Z,9.5
2023-04-11T04:21:55.799Z,9.6
2023-04-11T04:27:01.896Z,9.6
2023-04-11T04:32:07.988Z,9.6
2023-04-11T04:37:13.107Z,9.7
2023-04-11T04:42:19.193Z,9.8
2023-04-11T04:47:25.299Z,9.8
2023-04-11T04:52:31.393Z,10
2023-04-11T04:57:37.492Z,10.1
2023-04-11T05:02:43.584Z,10.1
2023-04-11T05:07:49.696Z,10.1
2023-04-11T05:12:55.779Z,10.1
2023-04-11T05:18:01.896Z,10.2
2023-04-11T05:23:07.971Z,10.3
2023-04-11T05:28:14.065Z,10.3
2023-04-11T05:33:20.191Z,10.3
2023-04-11T05:38:26.279Z,10.3
2023-04-11T05:43:31.376Z,10.2
2023-04-11T05:48:37.487Z,10.2
2023-04-11T05:53:42.601Z,10.2
2023-04-11T05:58:48.698Z,10.2
2023-04-11T06:03:54.802Z,10.3
2023-04-11T06:09:00.892Z,10.3
2023-04-11T06:14:06.974Z,10.2
2023-04-11T06:19:13.089Z,10.2
2023-04-11T06:24:19.185Z,10.3
2023-04-11T06:29:25.301Z,10.4
2023-04-11T06:34:31.377Z,10.5
2023-04-11T06:39:37.479Z,10.4
2023-04-11T06:44:43.558Z,10.5
2023-04-11T06:49:49.671Z,10.5
2023-04-11T06:54:55.774Z,10.6
2023-04-11T07:00:00.897Z,10.7
2023-04-11T07:05:06.986Z,10.8
2023-04-11T07:10:13.071Z,10.8
2023-04-11T07:15:19.172Z,10.9
2023-04-11T07:20:25.258Z,10.9
2023-04-11T07:25:31.344Z,11
2023-04-11T07:30:37.447Z,11
2023-04-11T07:35:43.545Z,11.1
2023-04-11T07:40:49.637Z,11.1
2023-04-11T07:45:55.732Z,11.1
2023-04-11T07:51:03.207Z,11.3
2023-04-11T07:56:07.922Z,11.7
2023-04-11T08:01:14.033Z,12.2
2023-04-11T08:06:19.141Z,12.6
2023-04-11T08:11:25.234Z,12.4
2023-04-11T08:16:31.339Z,12.6
2023-04-11T08:21:37.429Z,11.6
2023-04-11T08:26:43.535Z,10.6
2023-04-11T08:31:49.624Z,10
2023-04-11T08:36:55.759Z,10.3
2023-04-11T08:42:01.844Z,10.8
2023-04-11T08:47:07.920Z,10.9
2023-04-11T08:52:14.021Z,11.5
2023-04-11T08:57:20.113Z,12.2
2023-04-11T09:02:26.206Z,12.2
2023-04-11T09:07:32.299Z,12.9
2023-04-11T09:12:37.415Z,13.1
2023-04-11T09:17:43.531Z,13.8
2023-04-11T09:22:49.659Z,14.6
2023-04-11T09:27:55.714Z,14.7
2023-04-11T09:33:01.798Z,12.8
2023-04-11T09:38:07.906Z,10.6
2023-04-11T09:43:14.003Z,10.2
2023-04-11T09:48:20.098Z,11.3
2023-04-11T09:53:26.185Z,11.8
2023-04-11T09:58:32.338Z,11.4
2023-04-11T10:03:38.402Z,10.9
2023-04-11T10:08:44.503Z,10.8
2023-04-11T10:13:50.568Z,11.4
2023-04-11T10:18:55.707Z,14
2023-04-11T10:24:01.781Z,13.2
2023-04-11T10:29:07.880Z,13.5
2023-04-11T10:34:13.989Z,14.2
2023-04-11T10:39:20.070Z,14.3
2023-04-11T10:44:26.262Z,14.9
2023-04-11T10:49:32.449Z,15
2023-04-11T10:54:38.458Z,14.8
2023-04-11T10:59:44.734Z,14.1
2023-04-11T11:04:50.773Z,14.4
2023-04-11T11:09:56.855Z,15.7
2023-04-11T11:15:02.719Z,16.8
2023-04-11T11:20:08.835Z,17.4
2023-04-11T11:25:13.962Z,16.8
2023-04-11T11:30:20.266Z,16.9
2023-04-11T11:35:26.337Z,17
2023-04-11T11:40:32.403Z,16.2
2023-04-11T11:45:38.488Z,16.1
2023-04-11T11:50:44.628Z,15.5
2023-04-11T11:55:50.673Z,14.5
2023-04-11T12:00:56.610Z,13.7
2023-04-11T12:11:08.968Z,13.9
2023-04-11T12:16:14.903Z,15.8
2023-04-11T12:21:21.172Z,17.3
2023-04-11T12:26:27.274Z,18.5
2023-04-11T12:31:32.210Z,18.1
2023-04-11T12:36:38.483Z,16.6
2023-04-11T12:41:44.582Z,18.3
2023-04-11T12:46:50.685Z,18
2023-04-11T12:51:56.808Z,16.1
2023-04-11T12:57:02.845Z,16.8
2023-04-11T13:02:08.905Z,15.4
2023-04-11T13:07:14.868Z,15.9
2023-04-11T13:12:21.163Z,17.7
2023-04-11T13:17:27.068Z,19
2023-04-11T13:22:33.349Z,20.3
2023-04-11T13:27:39.448Z,18.8
2023-04-11T13:32:45.652Z,16
2023-04-11T13:37:50.632Z,15
2023-04-11T13:42:56.692Z,14.8
2023-04-11T13:48:02.721Z,14.5
2023-04-11T13:53:09.285Z,17.5
2023-04-11T13:58:15.206Z,18.7
2023-04-11T14:03:21.048Z,16.9
2023-04-11T14:08:27.200Z,17.5
2023-04-11T14:13:33.361Z,17.8
2023-04-11T14:18:39.403Z,16.7
2023-04-11T14:23:45.403Z,16.8
2023-04-11T14:28:51.419Z,17
2023-04-11T14:33:57.562Z,17.3
2023-04-11T14:39:03.703Z,16.7
2023-04-11T14:44:08.770Z,15.7
2023-04-11T14:49:14.805Z,15.4
2023-04-11T14:54:21.052Z,15.3
2023-04-11T14:59:27.110Z,15.3
2023-04-11T15:04:33.268Z,15.4
2023-04-11T15:09:39.345Z,14.9
2023-04-11T15:14:45.508Z,14.7
2023-04-11T15:19:51.572Z,14.4
2023-04-11T15:24:57.634Z,13.7
2023-04-11T15:30:03.557Z,13.7
2023-04-11T15:35:09.893Z,14.1
2023-04-11T15:40:15.991Z,14.4
2023-04-11T15:45:22.053Z,14.3
2023-04-11T15:50:27.132Z,14.1
2023-04-11T15:55:33.281Z,14
2023-04-11T16:00:39.358Z,13.8
2023-04-11T16:05:45.418Z,13.7
2023-04-11T16:10:51.541Z,13.4
2023-04-11T16:15:57.490Z,12
2023-04-11T16:21:03.758Z,11.5
2023-04-11T16:26:09.814Z,11.7
2023-04-11T16:31:15.745Z,11.7
2023-04-11T16:36:21.991Z,11.1
2023-04-11T16:41:28.147Z,10.5
2023-04-11T16:46:34.166Z,10
2023-04-11T16:51:40.298Z,9.9
2023-04-11T16:56:45.424Z,9.6
2023-04-11T17:01:51.609Z,8.2
2023-04-11T17:06:57.643Z,7.7
2023-04-11T17:12:03.734Z,7.7
2023-04-11T17:17:09.785Z,8.5
2023-04-11T17:22:15.899Z,9.3
2023-04-11T17:27:22.029Z,8.9
2023-04-11T17:32:28.080Z,9.3
2023-04-11T17:37:34.198Z,8.6
2023-04-11T17:42:40.312Z,8.2
2023-04-11T17:47:46.396Z,8
2023-04-11T17:52:52.430Z,7.6
2023-04-11T17:57:58.582Z,7.3
2023-04-11T18:03:03.685Z,7.5
2023-04-11T18:08:09.780Z,7.5
2023-04-11T18:13:15.782Z,7.2
2023-04-11T18:18:21.967Z,7
2023-04-11T18:23:28.098Z,6.9
2023-04-11T18:28:34.171Z,6.8
2023-04-11T18:33:40.340Z,6.7
2023-04-11T18:38:46.443Z,6.6
2023-04-11T18:43:52.400Z,6.5
2023-04-11T18:48:58.592Z,6.3
2023-04-11T18:54:04.649Z,6.2
2023-04-11T18:59:10.771Z,5.9
2023-04-11T19:04:16.915Z,5.3
2023-04-11T19:09:21.884Z,5.1
2023-04-11T19:14:28.071Z,5.2
2023-04-11T19:19:34.182Z,5.5
2023-04-11T19:24:40.155Z,5.4
2023-04-11T19:29:46.325Z,5.2
2023-04-11T19:34:52.340Z,5.2
2023-04-11T19:39:58.589Z,5.1
2023-04-11T19:45:04.582Z,5
2023-04-11T19:50:10.703Z,4.8
2023-04-11T19:55:16.706Z,4.7
2023-04-11T20:00:22.899Z,4.5
2023-04-11T20:05:28.997Z,4.6
2023-04-11T20:10:35.117Z,4.7
2023-04-11T20:15:40.241Z,4.7
2023-04-11T20:20:46.374Z,4.6
2023-04-11T20:25:52.408Z,4.7
2023-04-11T20:30:58.559Z,4.8
2023-04-11T20:36:04.686Z,5
2023-04-11T20:41:10.670Z,5.2
2023-04-11T20:46:16.713Z,5.2
2023-04-11T20:51:22.878Z,4.9
2023-04-11T20:56:28.930Z,4.5
2023-04-11T21:01:35.107Z,4.4
2023-04-11T21:06:41.213Z,4.2
2023-04-11T21:11:47.259Z,3.9
2023-04-11T21:16:53.410Z,3.9
2023-04-11T21:21:58.407Z,3.7
2023-04-11T21:27:04.512Z,3.6
2023-04-11T21:32:10.707Z,3.5
2023-04-11T21:37:16.879Z,3.5
2023-04-11T21:42:22.842Z,3.5
2023-04-11T21:47:28.995Z,3.4
2023-04-11T21:52:35.104Z,3.2
2023-04-11T21:57:41.180Z,3.1
2023-04-11T22:02:47.210Z,3.1
2023-04-11T22:07:53.395Z,3.1
2023-04-11T22:12:59.526Z,3.2
2023-04-11T22:18:05.624Z,3.3
2023-04-11T22:23:11.738Z,3.4
2023-04-11T22:28:16.828Z,3.5
2023-04-11T22:33:22.952Z,3.5
2023-04-11T22:38:28.955Z,3.5
2023-04-11T22:43:35.174Z,3.5
2023-04-11T22:48:41.231Z,3.5
2023-04-11T22:53:47.339Z,3.4
2023-04-11T22:58:52.444Z,3.4
2023-04-11T23:03:58.510Z,3.3
2023-04-11T23:09:04.697Z,3.4
2023-04-11T23:14:10.621Z,3.3
2023-04-11T23:19:16.722Z,3.3
2023-04-11T23:24:22.960Z,3.2
2023-04-11T23:29:28.945Z,3.2
2023-04-11T23:34:35.024Z,3.2
2023-04-11T23:39:41.259Z,3.1
2023-04-11T23:44:47.301Z,3.2
2023-04-11T23:49:53.309Z,3.2
2023-04-11T23:54:59.490Z,3.2
